createdAt,value
2019-03-24T00:00:20.667Z,7.50
2019-03-24T00:05:24.339Z,7.40
2019-03-24T00:10:27.925Z,7.10
2019-03-24T00:15:31.595Z,7.10
2019-03-24T00:20:35.535Z,7.20
2019-03-24T00:25:39.125Z,7.30
2019-03-24T00:30:43.086Z,7.20
2019-03-24T00:35:46.675Z,7.00
2019-03-24T00:40:50.370Z,7.10
2019-03-24T00:45:54.368Z,7.20
2019-03-24T00:50:58.041Z,7.10
2019-03-24T00:56:01.705Z,7.00
2019-03-24T01:01:05.541Z,6.90
2019-03-24T01:06:09.335Z,6.70
2019-03-24T01:11:12.930Z,6.60
2019-03-24T01:16:16.521Z,6.60
2019-03-24T01:21:20.194Z,6.40
2019-03-24T01:26:23.884Z,6.30
2019-03-24T01:31:27.481Z,6.50
2019-03-24T01:36:31.369Z,6.30
2019-03-24T01:41:35.305Z,6.40
2019-03-24T01:46:38.902Z,6.20
2019-03-24T01:51:42.518Z,6.30
2019-03-24T01:56:46.117Z,6.10
2019-03-24T02:01:49.730Z,5.80
2019-03-24T02:06:53.316Z,5.90
2019-03-24T02:11:57.279Z,6.00
2019-03-24T02:17:00.939Z,6.00
2019-03-24T02:22:04.603Z,5.80
2019-03-24T02:27:08.214Z,5.80
2019-03-24T02:32:12.175Z,5.70
2019-03-24T02:37:15.915Z,5.80
2019-03-24T02:42:19.581Z,5.50
2019-03-24T02:47:23.177Z,5.60
2019-03-24T02:52:32.426Z,5.60
2019-03-24T02:57:36.098Z,5.50
2019-03-24T03:02:39.700Z,5.40
2019-03-24T03:07:43.379Z,5.30
2019-03-24T03:12:47.823Z,5.50
2019-03-24T03:17:51.966Z,5.40
2019-03-24T03:22:55.547Z,5.60
2019-03-24T03:27:59.160Z,5.60
2019-03-24T03:33:02.751Z,5.40
2019-03-24T03:38:06.418Z,5.30
2019-03-24T03:43:10.686Z,5.30
2019-03-24T03:48:15.231Z,4.90
2019-03-24T03:53:19.644Z,4.70
2019-03-24T03:58:23.549Z,4.90
2019-03-24T04:03:27.650Z,5.00
2019-03-24T04:08:31.669Z,5.00
2019-03-24T04:13:35.271Z,5.10
2019-03-24T04:18:38.856Z,4.70
2019-03-24T04:23:42.442Z,4.60
2019-03-24T04:28:46.193Z,4.70
2019-03-24T04:33:50.181Z,4.60
2019-03-24T04:38:53.773Z,4.80
2019-03-24T04:43:57.414Z,4.70
2019-03-24T04:49:01.434Z,4.70
2019-03-24T04:54:05.231Z,4.80
2019-03-24T04:59:09.119Z,4.50
2019-03-24T05:04:12.734Z,4.50
2019-03-24T05:09:17.082Z,4.70
2019-03-24T05:14:21.085Z,4.60
2019-03-24T05:19:24.758Z,4.70
2019-03-24T05:24:28.363Z,4.70
2019-03-24T05:29:31.970Z,4.60
2019-03-24T05:34:35.578Z,4.20
2019-03-24T05:39:39.196Z,4.30
2019-03-24T05:44:42.777Z,4.70
2019-03-24T05:49:46.445Z,4.70
2019-03-24T05:54:50.361Z,4.30
2019-03-24T05:59:53.970Z,4.50
2019-03-24T06:04:57.596Z,4.40
2019-03-24T06:10:01.679Z,4.50
2019-03-24T06:15:08.118Z,4.80
2019-03-24T06:20:12.354Z,4.90
2019-03-24T06:25:16.331Z,5.00
2019-03-24T06:30:19.995Z,5.00
2019-03-24T06:35:23.649Z,5.10
2019-03-24T06:40:27.252Z,5.10
2019-03-24T06:45:30.970Z,5.30
2019-03-24T06:50:34.564Z,5.40
2019-03-24T06:55:38.178Z,5.40
2019-03-24T07:00:41.786Z,5.60
2019-03-24T07:05:45.449Z,5.70
2019-03-24T07:10:49.140Z,6.10
2019-03-24T07:15:52.804Z,6.50
2019-03-24T07:20:56.550Z,6.60
2019-03-24T07:26:00.215Z,7.10
2019-03-24T07:31:03.800Z,7.50
2019-03-24T07:36:07.553Z,7.70
2019-03-24T07:41:11.559Z,8.00
2019-03-24T07:46:15.210Z,8.50
2019-03-24T07:51:19.241Z,8.70
2019-03-24T07:56:22.833Z,9.20
2019-03-24T08:01:26.593Z,9.50
2019-03-24T08:06:30.821Z,9.90
2019-03-24T08:11:34.492Z,10.10
2019-03-24T08:16:38.120Z,10.50
2019-03-24T08:21:41.789Z,10.80
2019-03-24T08:26:45.390Z,11.10
2019-03-24T08:31:49.360Z,11.30
2019-03-24T08:36:52.966Z,11.60
2019-03-24T08:41:56.649Z,11.70
2019-03-24T08:47:00.258Z,12.00
2019-03-24T08:52:04.077Z,12.40
2019-03-24T08:57:07.695Z,12.70
2019-03-24T09:02:11.311Z,13.10
2019-03-24T09:07:14.914Z,13.60
2019-03-24T09:12:18.513Z,13.90
2019-03-24T09:17:22.133Z,13.70
2019-03-24T09:22:25.725Z,14.20
2019-03-24T09:27:29.348Z,14.70
2019-03-24T09:32:33.134Z,15.20
2019-03-24T09:37:36.743Z,15.50
2019-03-24T09:42:40.384Z,15.50
2019-03-24T09:47:44.007Z,16.40
2019-03-24T09:52:47.638Z,16.80
2019-03-24T09:57:51.338Z,17.20
2019-03-24T10:02:55.435Z,17.60
2019-03-24T10:07:59.317Z,17.90
2019-03-24T10:13:02.996Z,18.60
2019-03-24T10:18:06.590Z,18.90
2019-03-24T10:23:10.268Z,18.60
2019-03-24T10:28:13.900Z,18.60
2019-03-24T10:33:17.897Z,19.30
2019-03-24T10:38:21.503Z,19.50
2019-03-24T10:43:25.123Z,20.50
2019-03-24T10:48:33.669Z,20.40
2019-03-24T10:53:33.995Z,20.90
2019-03-24T10:58:37.678Z,21.20
2019-03-24T11:03:41.668Z,21.80
2019-03-24T11:08:45.354Z,21.50
2019-03-24T11:13:49.603Z,21.90
2019-03-24T11:18:53.207Z,22.00
2019-03-24T11:23:56.874Z,22.20
2019-03-24T11:29:00.650Z,22.30
2019-03-24T11:34:04.752Z,22.50
2019-03-24T11:39:08.794Z,22.60
2019-03-24T11:44:12.898Z,23.40
2019-03-24T11:49:20.420Z,23.60
2019-03-24T11:54:24.033Z,24.10
2019-03-24T11:59:27.967Z,23.60
2019-03-24T12:04:31.569Z,23.90
2019-03-24T12:09:35.515Z,24.70
2019-03-24T12:14:39.198Z,25.00
2019-03-24T12:19:43.831Z,24.90
2019-03-24T12:24:47.361Z,24.70
2019-03-24T12:29:50.985Z,25.20
2019-03-24T12:34:56.644Z,25.30
2019-03-24T12:40:00.374Z,25.60
2019-03-24T12:45:08.730Z,25.60
2019-03-24T12:50:13.774Z,25.50
2019-03-24T12:55:17.633Z,24.70
2019-03-24T13:00:35.348Z,25.20
2019-03-24T13:05:39.184Z,23.70
2019-03-24T13:10:43.418Z,24.80
2019-03-24T13:15:55.006Z,25.20
2019-03-24T13:20:58.667Z,25.50
2019-03-24T13:26:02.381Z,24.90
2019-03-24T13:31:06.043Z,25.20
2019-03-24T13:36:11.288Z,25.50
2019-03-24T13:41:14.935Z,25.80
2019-03-24T13:46:18.636Z,25.80
2019-03-24T13:51:22.377Z,25.90
2019-03-24T13:56:29.406Z,24.80
2019-03-24T14:01:33.140Z,25.10
2019-03-24T14:06:37.102Z,25.50
2019-03-24T14:11:41.061Z,25.50
2019-03-24T14:16:46.586Z,25.20
2019-03-24T14:21:50.188Z,25.00
2019-03-24T14:26:53.867Z,25.00
2019-03-24T14:31:57.566Z,25.00
2019-03-24T14:37:01.165Z,24.80
2019-03-24T14:42:05.126Z,24.60
2019-03-24T14:47:08.718Z,24.30
2019-03-24T14:52:12.465Z,24.00
2019-03-24T14:57:19.179Z,23.80
2019-03-24T15:02:22.896Z,23.50
2019-03-24T15:07:26.498Z,23.20
2019-03-24T15:12:30.109Z,22.80
2019-03-24T15:17:33.858Z,22.70
2019-03-24T15:22:37.453Z,22.20
2019-03-24T15:27:41.469Z,21.80
2019-03-24T15:32:45.142Z,20.80
2019-03-24T15:37:48.810Z,20.60
2019-03-24T15:42:52.422Z,20.40
2019-03-24T15:47:56.405Z,20.10
2019-03-24T15:53:00.006Z,19.90
2019-03-24T15:58:03.668Z,19.90
2019-03-24T16:03:07.347Z,19.50
2019-03-24T16:08:11.404Z,19.30
2019-03-24T16:13:15.431Z,18.90
2019-03-24T16:18:19.029Z,18.90
2019-03-24T16:23:22.618Z,18.70
2019-03-24T16:28:26.604Z,18.40
2019-03-24T16:33:30.645Z,18.20
2019-03-24T16:38:34.565Z,18.10
2019-03-24T16:43:38.164Z,17.70
2019-03-24T16:48:41.922Z,17.60
2019-03-24T16:53:45.946Z,17.60
2019-03-24T16:58:49.537Z,17.40
2019-03-24T17:03:53.145Z,17.20
2019-03-24T17:08:57.121Z,16.90
2019-03-24T17:14:00.788Z,16.60
2019-03-24T17:19:04.535Z,16.60
2019-03-24T17:24:08.130Z,16.50
2019-03-24T17:29:11.806Z,16.30
2019-03-24T17:34:15.537Z,16.00
2019-03-24T17:39:19.132Z,16.00
2019-03-24T17:44:23.090Z,15.70
2019-03-24T17:49:26.770Z,15.60
2019-03-24T17:54:30.385Z,15.50
2019-03-24T17:59:34.011Z,15.40
2019-03-24T18:04:37.656Z,15.40
2019-03-24T18:09:41.225Z,15.30
2019-03-24T18:14:44.909Z,15.20
2019-03-24T18:19:48.609Z,15.00
2019-03-24T18:24:52.552Z,14.90
2019-03-24T18:29:56.593Z,14.80
2019-03-24T18:35:00.328Z,14.70
2019-03-24T18:40:06.513Z,14.60
2019-03-24T18:45:11.947Z,14.60
2019-03-24T18:50:15.765Z,14.40
2019-03-24T18:55:19.437Z,14.30
2019-03-24T19:00:23.104Z,14.20
2019-03-24T19:05:26.709Z,14.00
2019-03-24T19:10:30.397Z,13.90
2019-03-24T19:15:34.209Z,13.40
2019-03-24T19:20:37.886Z,12.70
2019-03-24T19:25:41.504Z,12.00
2019-03-24T19:30:45.128Z,12.20
2019-03-24T19:35:51.096Z,12.30
2019-03-24T19:40:54.862Z,12.00
2019-03-24T19:45:59.357Z,12.20
2019-03-24T19:51:07.159Z,12.30
2019-03-24T19:56:10.946Z,12.40
2019-03-24T20:01:14.959Z,12.40
2019-03-24T20:06:18.942Z,12.40
2019-03-24T20:11:22.880Z,12.40
2019-03-24T20:16:26.798Z,12.30
2019-03-24T20:21:30.391Z,12.30
2019-03-24T20:26:33.993Z,12.30
2019-03-24T20:31:37.602Z,12.20
2019-03-24T20:36:41.379Z,12.20
2019-03-24T20:41:45.038Z,12.20
2019-03-24T20:46:48.732Z,12.00
2019-03-24T20:51:52.706Z,12.00
2019-03-24T20:56:56.307Z,11.80
2019-03-24T21:02:00.366Z,11.70
2019-03-24T21:07:04.125Z,11.70
2019-03-24T21:12:07.738Z,11.40
2019-03-24T21:17:11.846Z,11.40
2019-03-24T21:22:15.523Z,11.30
2019-03-24T21:27:19.140Z,10.80
2019-03-24T21:32:23.089Z,10.70
2019-03-24T21:37:26.751Z,10.50
2019-03-24T21:42:30.350Z,10.60
2019-03-24T21:47:34.038Z,10.60
2019-03-24T21:52:37.707Z,10.50
2019-03-24T21:57:41.836Z,10.00
2019-03-24T22:02:45.512Z,10.00
2019-03-24T22:07:49.110Z,9.80
2019-03-24T22:12:52.771Z,9.60
2019-03-24T22:17:56.396Z,9.30
2019-03-24T22:23:00.071Z,9.50
2019-03-24T22:28:03.842Z,9.30
2019-03-24T22:33:07.516Z,9.10
2019-03-24T22:38:11.185Z,8.90
2019-03-24T22:43:15.166Z,9.10
2019-03-24T22:48:18.771Z,9.00
2019-03-24T22:53:22.364Z,9.00
2019-03-24T22:58:25.971Z,9.00
2019-03-24T23:03:29.544Z,9.00
2019-03-24T23:08:33.146Z,8.90
2019-03-24T23:13:37.241Z,8.90
2019-03-24T23:18:40.907Z,9.30
2019-03-24T23:23:44.532Z,9.40
2019-03-24T23:28:48.113Z,9.60
2019-03-24T23:33:51.727Z,9.50
2019-03-24T23:38:57.245Z,9.40
2019-03-24T23:44:00.840Z,9.50
2019-03-24T23:49:04.510Z,9.20
2019-03-24T23:54:08.234Z,9.00
2019-03-24T23:59:11.828Z,9.00
